sim
Sign-in with your pilot id or email,
or register
Callsign
Passwort

Schedule Details

Flight Number: OEO6705
Departure: Nairobi Jomo Kenyatta International Airport (HKJK) at 05:00
Arrival: Munich Airport (EDDM) at 13:35

Weather Information
Getting current METAR information for HKJK 250700Z 19005KT 9999 BKN015 18/15 Q1025 NOSIG
Getting current METAR information for EDDM 250920Z 28009KT 250V320 9999 -RA FEW015 BKN048 10/07 Q1002 NOSIG

Schedule Frequency

Route Map